Aberdeen, New Jersey
Current Conditions -  °F | °C
As of 10:55 AM on Wednesday 28 Jan 2015 (Local Time) from KLDJ Reporting Station
Clear Clear  
Wind Chill: 19°   Ceiling: Unl
Heat Index: 29°   Visibility: 10mi
Dew Point: 11°   Wind: 14mph
Humidity: 47%   Direction: 340°NNW
Pressure: 30.1"   Gusts: NA
Location:  40.4118°N, 74.2499°W
Report Text: KLDJ 281555Z AUTO 34012KT 10SM CLR M01/M11 A3010 RMK AO2 T10141115
Loading
Personal Weather Stations






























Interactive Weather Map New forecast layout! Learn more

10-Day Weather Forecast

Advertisements
Track Severe Weather on mobile